Terminal Aerodrome Forecast
Issued by NWS Melbourne, FL

Home | Current Version | Previous Version | Text Only | Print | Product List | Glossary On
Versions: 1 2 3 4 5 6 7 8 9 10 11 12 13 14 15 16
000
FTUS42 KMLB 242325
TAFMLB
TAF
KMLB 242325Z 2500/2524 05013KT P6SM FEW250
     FM250600 08009KT P6SM SCT060
     FM251100 12004KT P6SM SCT050
     FM251400 14012KT P6SM BKN040
     FM251600 16014G19KT P6SM BKN035
     FM252200 19012KT P6SM VCSH BKN035=

USA.gov is the U.S. government's official web portal to all federal, state and local government web resources and services.